Time;durP1;ratioP1;P1;durP2;ratioP2;P2;SDS_P1;SDS_P2;PMS_P1;PMS_P2;Temp;Humidity;BMP_temperature;BMP_pressure;BME280_temperature;BME280_humidity;BME280_pressure;Samples;Min_cycle;Max_cycle;Signal;HPM_P1;HPM_P2
2022/05/12 00:00:30;;;;;;;5.37;2.98;;;;;;;;;;1704731;83;21083;-69
2022/05/12 00:02:56;;;;;;;4.20;2.95;;;;;;;;;;1718368;83;21575;-68
2022/05/12 00:05:22;;;;;;;6.37;3.02;;;;;;;;;;1706447;83;21032;-69
2022/05/12 00:07:50;;;;;;;4.37;2.95;;;;;;;;;;1698736;84;21290;-69
2022/05/12 00:10:17;;;;;;;4.47;2.83;;;;;;;;;;1698871;83;21059;-69
2022/05/12 00:15:31;;;;;;;6.42;2.98;;;;;;;;;;1794968;79;22514;-69
2022/05/12 00:18:01;;;;;;;4.72;2.70;;;;;;;;;;1761463;81;21052;-69
2022/05/12 00:20:26;;;;;;;4.45;2.98;;;;;;;;;;1759643;81;20997;-69
2022/05/12 00:22:52;;;;;;;6.78;3.05;;;;;;;;;;1756547;81;21690;-69
2022/05/12 00:25:19;;;;;;;6.40;3.10;;;;;;;;;;1736756;81;21004;-69
2022/05/12 00:27:45;;;;;;;5.85;3.20;;;;;;;;;;1761652;81;21055;-69
2022/05/12 00:30:11;;;;;;;5.00;3.20;;;;;;;;;;1761765;81;20993;-69
2022/05/12 00:32:40;;;;;;;4.95;3.00;;;;;;;;;;1760034;81;21068;-69
2022/05/12 00:35:06;;;;;;;4.37;2.72;;;;;;;;;;1761365;81;21032;-69
2022/05/12 00:37:32;;;;;;;7.30;2.85;;;;;;;;;;1749338;81;21107;-69
2022/05/12 00:39:58;;;;;;;6.92;3.83;;;;;;;;;;1758318;81;21092;-69
2022/05/12 00:42:25;;;;;;;6.22;3.20;;;;;;;;;;1759542;81;21052;-70
2022/05/12 00:44:51;;;;;;;6.40;3.12;;;;;;;;;;1759914;81;21028;-70
2022/05/12 00:47:17;;;;;;;4.33;2.90;;;;;;;;;;1756331;81;21529;-69
2022/05/12 00:49:43;;;;;;;7.28;2.90;;;;;;;;;;1757817;81;21032;-70
2022/05/12 00:52:14;;;;;;;5.22;2.90;;;;;;;;;;1755589;81;21080;-70
2022/05/12 00:54:43;;;;;;;4.97;2.58;;;;;;;;;;1759754;81;21016;-68
2022/05/12 00:57:12;;;;;;;6.28;2.85;;;;;;;;;;1761401;81;20997;-69
2022/05/12 00:59:38;;;;;;;6.10;2.87;;;;;;;;;;1760002;81;21103;-69
2022/05/12 01:04:55;;;;;;;8.58;2.90;;;;;;;;;;1761675;78;21187;-67
2022/05/12 01:07:21;;;;;;;7.83;3.02;;;;;;;;;;1783774;80;21028;-68
2022/05/12 01:09:48;;;;;;;8.03;3.12;;;;;;;;;;1785266;80;21061;-68
2022/05/12 01:12:14;;;;;;;5.55;2.70;;;;;;;;;;1784806;80;21060;-68
2022/05/12 01:14:41;;;;;;;5.55;2.77;;;;;;;;;;1785505;80;21472;-68
2022/05/12 01:17:07;;;;;;;5.53;2.87;;;;;;;;;;1783979;80;21160;-68
2022/05/12 01:19:35;;;;;;;4.03;3.02;;;;;;;;;;1784756;80;21068;-68
2022/05/12 01:22:01;;;;;;;4.67;2.70;;;;;;;;;;1771434;80;20977;-68
2022/05/12 01:24:31;;;;;;;3.60;2.58;;;;;;;;;;1785497;80;21008;-68
2022/05/12 01:26:56;;;;;;;4.03;2.45;;;;;;;;;;1784827;80;21511;-68
2022/05/12 01:29:22;;;;;;;4.53;2.65;;;;;;;;;;1782178;80;21000;-68
2022/05/12 01:31:49;;;;;;;5.42;2.60;;;;;;;;;;1768952;80;21050;-68
2022/05/12 01:34:15;;;;;;;4.90;2.27;;;;;;;;;;1785062;80;21077;-68
2022/05/12 01:36:42;;;;;;;5.05;2.65;;;;;;;;;;1784665;80;21563;-68
2022/05/12 01:39:08;;;;;;;5.67;2.70;;;;;;;;;;1784927;80;21047;-68
2022/05/12 01:41:34;;;;;;;5.45;2.85;;;;;;;;;;1768327;80;21061;-68
2022/05/12 01:44:02;;;;;;;3.92;2.45;;;;;;;;;;1765533;80;21564;-68
2022/05/12 01:46:28;;;;;;;5.50;3.00;;;;;;;;;;1764787;80;21069;-68
2022/05/12 01:48:54;;;;;;;4.90;2.58;;;;;;;;;;1764840;80;21073;-68
2022/05/12 01:51:21;;;;;;;6.12;2.77;;;;;;;;;;1774866;80;21032;-68
2022/05/12 01:53:47;;;;;;;5.15;2.95;;;;;;;;;;1784342;80;21003;-68
2022/05/12 01:56:13;;;;;;;5.37;2.80;;;;;;;;;;1784812;80;21025;-68
2022/05/12 01:58:39;;;;;;;6.45;2.40;;;;;;;;;;1780458;80;20997;-68
2022/05/12 02:01:06;;;;;;;4.15;2.62;;;;;;;;;;1776698;80;21026;-68
2022/05/12 02:03:33;;;;;;;4.00;2.55;;;;;;;;;;1765675;80;21094;-69
2022/05/12 02:06:01;;;;;;;7.00;2.47;;;;;;;;;;1753691;82;21057;-68
2022/05/12 02:08:27;;;;;;;4.33;2.42;;;;;;;;;;1753742;82;21590;-68
2022/05/12 02:10:53;;;;;;;3.27;2.40;;;;;;;;;;1739598;82;20981;-68
2022/05/12 02:13:21;;;;;;;4.22;2.60;;;;;;;;;;1753880;82;21460;-68
2022/05/12 02:15:47;;;;;;;26.02;4.08;;;;;;;;;;1753956;82;21017;-68
2022/05/12 02:18:14;;;;;;;15.03;3.50;;;;;;;;;;1753832;82;21607;-68
2022/05/12 02:20:40;;;;;;;4.50;2.50;;;;;;;;;;1753828;82;21590;-68
2022/05/12 02:23:07;;;;;;;4.00;2.40;;;;;;;;;;1753918;82;21066;-68
2022/05/12 02:25:34;;;;;;;4.60;2.42;;;;;;;;;;1753659;82;21054;-68
2022/05/12 02:27:59;;;;;;;5.60;2.40;;;;;;;;;;1718281;83;21043;-68
2022/05/12 02:30:26;;;;;;;4.10;2.40;;;;;;;;;;1718031;83;21023;-68
2022/05/12 02:32:53;;;;;;;5.47;2.60;;;;;;;;;;1753651;82;21068;-69
2022/05/12 02:35:19;;;;;;;4.53;2.30;;;;;;;;;;1753859;82;21492;-68
2022/05/12 02:37:45;;;;;;;4.67;2.52;;;;;;;;;;1753608;82;21073;-68
2022/05/12 02:40:12;;;;;;;8.85;2.75;;;;;;;;;;1718147;83;21511;-68
2022/05/12 02:42:38;;;;;;;4.58;2.12;;;;;;;;;;1753665;82;21010;-68
2022/05/12 02:45:06;;;;;;;3.27;2.05;;;;;;;;;;1753850;82;21020;-68
2022/05/12 02:47:34;;;;;;;4.92;2.33;;;;;;;;;;1753940;82;21534;-68
2022/05/12 02:50:02;;;;;;;4.65;2.37;;;;;;;;;;1753777;82;21068;-68
2022/05/12 02:52:28;;;;;;;3.58;2.10;;;;;;;;;;1753816;82;21053;-68
2022/05/12 02:54:55;;;;;;;4.35;2.05;;;;;;;;;;1753641;82;21069;-68
2022/05/12 02:57:21;;;;;;;4.80;2.40;;;;;;;;;;1753890;82;21018;-68
2022/05/12 02:59:48;;;;;;;4.80;2.40;;;;;;;;;;1753625;82;21484;-68
2022/05/12 03:02:13;;;;;;;3.05;2.20;;;;;;;;;;1718224;83;20976;-68
2022/05/12 03:04:39;;;;;;;6.35;2.52;;;;;;;;;;1699159;83;22131;-68
2022/05/12 03:07:05;;;;;;;3.15;2.05;;;;;;;;;;1714638;83;20983;-68
2022/05/12 03:09:31;;;;;;;3.92;2.40;;;;;;;;;;1718235;83;21023;-69
2022/05/12 03:11:57;;;;;;;4.12;2.58;;;;;;;;;;1718092;83;20979;-68
2022/05/12 03:14:24;;;;;;;5.10;2.40;;;;;;;;;;1696976;84;21032;-69
2022/05/12 03:16:53;;;;;;;4.03;2.25;;;;;;;;;;1718120;83;20995;-68
2022/05/12 03:19:17;;;;;;;3.55;2.20;;;;;;;;;;1675838;84;21245;-68
2022/05/12 03:21:46;;;;;;;6.03;2.50;;;;;;;;;;1753658;82;21060;-68
2022/05/12 03:24:12;;;;;;;4.35;2.70;;;;;;;;;;1753881;82;21028;-68
2022/05/12 03:26:39;;;;;;;9.20;2.55;;;;;;;;;;1753858;82;21545;-68
2022/05/12 03:29:05;;;;;;;3.17;2.10;;;;;;;;;;1718069;83;20987;-68
2022/05/12 03:31:32;;;;;;;3.20;2.12;;;;;;;;;;1701911;84;21075;-68
2022/05/12 03:34:00;;;;;;;3.40;2.27;;;;;;;;;;1676015;84;22143;-68
2022/05/12 03:36:26;;;;;;;5.53;2.60;;;;;;;;;;1699841;84;21055;-68
2022/05/12 03:38:52;;;;;;;3.87;2.40;;;;;;;;;;1699795;84;21021;-68
2022/05/12 03:41:18;;;;;;;4.95;2.30;;;;;;;;;;1699531;84;21029;-68
2022/05/12 03:46:30;;;;;;;6.78;3.42;;;;;;;;;;1682124;84;21046;-69
2022/05/12 03:48:57;;;;;;;4.67;2.37;;;;;;;;;;1699718;84;21110;-69
2022/05/12 03:51:23;;;;;;;5.03;2.62;;;;;;;;;;1699807;84;21026;-69
2022/05/12 03:53:49;;;;;;;20.17;3.77;;;;;;;;;;1693032;84;20997;-68
2022/05/12 03:56:17;;;;;;;5.40;2.40;;;;;;;;;;1693296;85;20997;-69
2022/05/12 03:58:43;;;;;;;3.60;2.50;;;;;;;;;;1693164;85;21577;-68
2022/05/12 04:01:10;;;;;;;6.37;3.10;;;;;;;;;;1693311;85;21012;-68
2022/05/12 04:03:37;;;;;;;6.08;2.33;;;;;;;;;;1717917;82;21019;-67
2022/05/12 04:06:04;;;;;;;3.87;2.35;;;;;;;;;;1730969;83;20983;-68
2022/05/12 04:08:30;;;;;;;5.10;2.50;;;;;;;;;;1733992;83;21529;-67
2022/05/12 04:10:56;;;;;;;5.45;2.87;;;;;;;;;;1733842;83;21046;-68
2022/05/12 04:13:23;;;;;;;4.05;2.52;;;;;;;;;;1709478;83;21396;-68
2022/05/12 04:15:49;;;;;;;4.83;2.62;;;;;;;;;;1720457;83;21052;-67
2022/05/12 04:18:15;;;;;;;5.70;2.33;;;;;;;;;;1734059;83;21040;-67
2022/05/12 04:20:43;;;;;;;4.12;2.65;;;;;;;;;;1735769;81;20993;-67
2022/05/12 04:23:10;;;;;;;4.90;3.17;;;;;;;;;;1722223;83;21084;-68
2022/05/12 04:25:36;;;;;;;8.05;3.17;;;;;;;;;;1726559;83;21002;-68
2022/05/12 04:28:03;;;;;;;8.73;2.72;;;;;;;;;;1734254;83;21271;-69
2022/05/12 04:30:29;;;;;;;4.37;2.35;;;;;;;;;;1734109;83;21451;-68
2022/05/12 04:35:09;;;;;;;4.83;2.92;;;;;;;;;;1734105;83;21018;-68
2022/05/12 04:35:24;;;;;;;4.65;2.70;;;;;;;;;;1733804;83;20983;-68
2022/05/12 04:37:51;;;;;;;6.25;2.42;;;;;;;;;;1708975;83;21006;-68
2022/05/12 04:40:19;;;;;;;15.83;3.87;;;;;;;;;;1734169;83;20971;-68
2022/05/12 04:42:49;;;;;;;4.50;2.85;;;;;;;;;;1734001;83;21061;-68
2022/05/12 04:45:15;;;;;;;6.87;3.08;;;;;;;;;;1734162;83;21455;-69
2022/05/12 04:47:42;;;;;;;4.95;2.77;;;;;;;;;;1734158;83;21073;-68
2022/05/12 04:50:09;;;;;;;4.67;2.52;;;;;;;;;;1734029;83;21018;-68
2022/05/12 04:52:35;;;;;;;15.15;3.22;;;;;;;;;;1700711;83;21013;-67
2022/05/12 04:55:01;;;;;;;4.97;2.70;;;;;;;;;;1693715;85;21084;-68
2022/05/12 04:57:34;;;;;;;6.85;2.80;;;;;;;;;;1743595;82;21025;-68
2022/05/12 05:00:03;;;;;;;8.40;3.05;;;;;;;;;;1746233;82;21084;-68
2022/05/12 05:02:29;;;;;;;6.65;2.80;;;;;;;;;;1752126;82;21585;-68
2022/05/12 05:04:55;;;;;;;4.45;2.65;;;;;;;;;;1721220;82;21096;-68
2022/05/12 05:07:22;;;;;;;5.42;2.70;;;;;;;;;;1720757;83;20973;-69
2022/05/12 05:09:50;;;;;;;4.33;2.90;;;;;;;;;;1706652;84;21094;-68
2022/05/12 05:12:16;;;;;;;5.22;2.60;;;;;;;;;;1695788;84;21036;-68
2022/05/12 05:14:43;;;;;;;27.35;5.45;;;;;;;;;;1678407;85;21099;-68
2022/05/12 05:17:09;;;;;;;10.38;2.95;;;;;;;;;;1708458;84;21600;-69
2022/05/12 05:19:35;;;;;;;8.33;3.17;;;;;;;;;;1706767;84;21053;-68
2022/05/12 05:22:02;;;;;;;4.60;2.33;;;;;;;;;;1702342;84;21523;-68
2022/05/12 05:24:30;;;;;;;5.87;2.52;;;;;;;;;;1720530;83;21080;-68
2022/05/12 05:26:56;;;;;;;3.95;2.37;;;;;;;;;;1710889;84;21016;-68
2022/05/12 05:29:22;;;;;;;4.85;2.83;;;;;;;;;;1709930;84;21044;-67
2022/05/12 05:31:48;;;;;;;5.12;2.58;;;;;;;;;;1711434;84;21075;-68
2022/05/12 05:34:14;;;;;;;35.68;4.47;;;;;;;;;;1696336;84;21108;-68
2022/05/12 05:36:42;;;;;;;24.50;4.25;;;;;;;;;;1696337;84;20996;-67
2022/05/12 05:39:10;;;;;;;5.30;3.02;;;;;;;;;;1696468;84;21071;-68
2022/05/12 05:41:37;;;;;;;4.95;2.95;;;;;;;;;;1696291;84;21556;-67
2022/05/12 05:44:05;;;;;;;7.72;3.00;;;;;;;;;;1696426;84;21024;-67
2022/05/12 05:46:32;;;;;;;5.92;2.35;;;;;;;;;;1684457;84;20975;-67
2022/05/12 05:48:57;;;;;;;7.17;2.37;;;;;;;;;;1677232;85;21521;-67
2022/05/12 05:54:08;;;;;;;5.53;2.87;;;;;;;;;;1708039;83;21083;-67
2022/05/12 05:56:34;;;;;;;3.72;2.50;;;;;;;;;;1702694;84;21043;-66
2022/05/12 05:59:00;;;;;;;3.90;2.45;;;;;;;;;;1721060;82;21580;-66
2022/05/12 06:01:27;;;;;;;4.08;2.60;;;;;;;;;;1706280;84;21039;-66
2022/05/12 06:03:56;;;;;;;8.85;2.85;;;;;;;;;;1705975;83;21543;-67
2022/05/12 06:06:22;;;;;;;17.48;3.50;;;;;;;;;;1730273;83;21611;-67
2022/05/12 06:08:48;;;;;;;4.80;2.90;;;;;;;;;;1726984;83;21016;-67
2022/05/12 06:11:15;;;;;;;4.00;2.52;;;;;;;;;;1718700;83;21072;-67
2022/05/12 06:13:42;;;;;;;9.28;3.05;;;;;;;;;;1752171;82;21037;-67
2022/05/12 06:16:10;;;;;;;5.78;2.42;;;;;;;;;;1719816;82;21744;-67
2022/05/12 06:18:37;;;;;;;6.83;2.70;;;;;;;;;;1699392;84;21071;-68
2022/05/12 06:21:04;;;;;;;6.33;2.50;;;;;;;;;;1697383;84;21041;-68
2022/05/12 06:23:32;;;;;;;4.95;2.72;;;;;;;;;;1699496;84;21042;-67
2022/05/12 06:25:58;;;;;;;5.10;2.60;;;;;;;;;;1697382;84;21310;-68
2022/05/12 06:28:25;;;;;;;4.95;2.92;;;;;;;;;;1699101;84;21113;-67
2022/05/12 06:30:51;;;;;;;9.98;2.90;;;;;;;;;;1722961;83;21044;-70
2022/05/12 06:33:17;;;;;;;24.90;4.10;;;;;;;;;;1710392;83;21005;-67
2022/05/12 06:35:43;;;;;;;5.47;3.00;;;;;;;;;;1733442;83;21088;-67
2022/05/12 06:38:11;;;;;;;4.30;2.77;;;;;;;;;;1714160;84;20993;-67
2022/05/12 06:40:37;;;;;;;5.50;2.87;;;;;;;;;;1734055;82;21016;-66
2022/05/12 06:43:04;;;;;;;27.42;4.97;;;;;;;;;;1747431;82;20984;-67
2022/05/12 06:45:30;;;;;;;6.17;3.02;;;;;;;;;;1747161;82;21579;-67
2022/05/12 06:47:56;;;;;;;4.08;2.42;;;;;;;;;;1747280;82;21550;-67
2022/05/12 06:50:24;;;;;;;23.62;3.77;;;;;;;;;;1745448;82;21585;-67
2022/05/12 06:52:50;;;;;;;7.12;2.62;;;;;;;;;;1751761;82;21071;-67
2022/05/12 06:55:17;;;;;;;3.98;2.55;;;;;;;;;;1751713;82;21059;-66
2022/05/12 06:57:47;;;;;;;3.52;2.72;;;;;;;;;;1730955;82;21123;-67
2022/05/12 07:00:16;;;;;;;4.25;2.42;;;;;;;;;;1751894;82;21381;-68
2022/05/12 07:02:44;;;;;;;6.85;2.90;;;;;;;;;;1728346;82;21036;-69
2022/05/12 07:05:11;;;;;;;5.30;3.10;;;;;;;;;;1720963;83;21088;-67
2022/05/12 07:07:38;;;;;;;6.75;3.00;;;;;;;;;;1717690;83;22136;-68
2022/05/12 07:10:05;;;;;;;4.17;2.92;;;;;;;;;;1753623;82;21020;-67
2022/05/12 07:12:31;;;;;;;4.35;2.72;;;;;;;;;;1753559;82;21012;-67
2022/05/12 07:14:58;;;;;;;8.78;3.05;;;;;;;;;;1753742;81;21191;-67
2022/05/12 07:17:24;;;;;;;6.62;3.10;;;;;;;;;;1746759;81;21059;-67
2022/05/12 07:19:52;;;;;;;6.10;3.00;;;;;;;;;;1717906;83;21106;-72
2022/05/12 07:27:49;;;;;;;4.78;3.00;;;;;;;;;;1753311;81;20988;-67
2022/05/12 07:30:15;;;;;;;47.20;5.67;;;;;;;;;;1712617;83;21487;-68
2022/05/12 07:32:42;;;;;;;17.73;3.52;;;;;;;;;;1750777;82;21023;-67
2022/05/12 07:35:09;;;;;;;10.63;3.62;;;;;;;;;;1751835;82;21040;-67
2022/05/12 07:37:37;;;;;;;5.75;2.90;;;;;;;;;;1711150;83;20968;-67
2022/05/12 07:40:04;;;;;;;6.03;3.20;;;;;;;;;;1675360;85;21043;-69
2022/05/12 07:42:30;;;;;;;10.55;3.12;;;;;;;;;;1720128;83;21054;-69
2022/05/12 07:44:57;;;;;;;6.15;3.00;;;;;;;;;;1708478;84;21087;-68
2022/05/12 07:47:25;;;;;;;17.05;4.37;;;;;;;;;;1693272;85;21571;-68
2022/05/12 07:49:51;;;;;;;5.70;3.10;;;;;;;;;;1661492;85;21076;-67
2022/05/12 07:52:17;;;;;;;40.38;6.33;;;;;;;;;;1693167;85;21590;-68
2022/05/12 07:54:44;;;;;;;5.37;3.30;;;;;;;;;;1692760;85;21065;-67
2022/05/12 07:57:10;;;;;;;5.53;3.35;;;;;;;;;;1683810;85;21058;-67
2022/05/12 07:59:37;;;;;;;7.78;3.65;;;;;;;;;;1717644;83;21439;-67
2022/05/12 08:02:03;;;;;;;6.75;3.30;;;;;;;;;;1717980;83;21050;-68
2022/05/12 08:04:29;;;;;;;5.35;3.20;;;;;;;;;;1753799;80;21049;-67
2022/05/12 08:07:01;;;;;;;6.72;3.47;;;;;;;;;;1726387;82;21061;-67
2022/05/12 08:09:25;;;;;;;8.75;3.50;;;;;;;;;;1752852;82;21543;-67
2022/05/12 08:11:52;;;;;;;10.35;3.98;;;;;;;;;;1710995;84;21026;-67
2022/05/12 08:14:18;;;;;;;4.10;3.17;;;;;;;;;;1682390;85;21091;-67
2022/05/12 08:16:46;;;;;;;48.02;7.92;;;;;;;;;;1704593;84;21062;-68
2022/05/12 08:19:12;;;;;;;9.28;3.65;;;;;;;;;;1682817;84;21175;-70
2022/05/12 08:21:38;;;;;;;6.65;3.75;;;;;;;;;;1679867;85;21045;-67
2022/05/12 08:24:06;;;;;;;5.00;3.45;;;;;;;;;;1703191;84;21621;-69
2022/05/12 08:26:33;;;;;;;18.73;3.65;;;;;;;;;;1703063;84;21601;-68
2022/05/12 08:28:59;;;;;;;8.65;3.65;;;;;;;;;;1692336;84;21568;-68
2022/05/12 08:31:29;;;;;;;11.53;3.60;;;;;;;;;;1738516;82;21028;-68
2022/05/12 08:33:52;;;;;;;7.67;3.62;;;;;;;;;;1746295;82;21583;-68
2022/05/12 08:36:19;;;;;;;7.60;4.05;;;;;;;;;;1711297;84;21083;-68
2022/05/12 08:38:46;;;;;;;5.22;3.25;;;;;;;;;;1711401;83;21553;-68
2022/05/12 08:41:23;;;;;;;4.80;3.20;;;;;;;;;;1710930;84;21500;-68
2022/05/12 08:43:54;;;;;;;7.87;3.72;;;;;;;;;;1710718;84;21068;-68
2022/05/12 08:46:27;;;;;;;4.50;3.72;;;;;;;;;;1705365;84;21004;-68
2022/05/12 08:49:06;;;;;;;6.25;3.77;;;;;;;;;;1710462;84;21044;-68
2022/05/12 08:51:34;;;;;;;5.33;3.83;;;;;;;;;;1709493;84;21650;-68
2022/05/12 08:54:04;;;;;;;5.85;3.50;;;;;;;;;;1711351;84;20976;-68
2022/05/12 08:56:32;;;;;;;5.00;3.70;;;;;;;;;;1710327;84;21634;-68
2022/05/12 08:58:58;;;;;;;4.85;3.55;;;;;;;;;;1683173;84;21413;-68
2022/05/12 09:01:38;;;;;;;6.25;3.47;;;;;;;;;;1654844;85;21098;-68
2022/05/12 09:04:23;;;;;;;7.35;4.67;;;;;;;;;;1679852;84;21114;-68
2022/05/12 09:06:51;;;;;;;9.00;4.12;;;;;;;;;;1700898;82;21100;-68
2022/05/12 09:09:23;;;;;;;10.18;4.00;;;;;;;;;;1701279;84;21100;-68
2022/05/12 09:11:59;;;;;;;5.33;4.00;;;;;;;;;;1754080;82;21524;-68
2022/05/12 09:14:36;;;;;;;9.90;4.10;;;;;;;;;;1754462;81;21052;-67
2022/05/12 09:17:02;;;;;;;16.23;4.97;;;;;;;;;;1753986;82;21070;-69
2022/05/12 09:19:28;;;;;;;8.48;4.12;;;;;;;;;;1754038;82;21120;-68
2022/05/12 09:21:56;;;;;;;7.03;4.55;;;;;;;;;;1718104;83;21058;-68
2022/05/12 09:24:22;;;;;;;6.03;4.17;;;;;;;;;;1675347;84;21033;-67
2022/05/12 09:26:51;;;;;;;11.22;4.10;;;;;;;;;;1752270;82;22124;-68
2022/05/12 09:29:21;;;;;;;6.97;3.90;;;;;;;;;;1748444;82;21088;-68
2022/05/12 09:32:04;;;;;;;9.50;4.28;;;;;;;;;;1752356;81;21059;-68
2022/05/12 09:34:37;;;;;;;18.98;4.53;;;;;;;;;;1749176;82;21052;-68
2022/05/12 09:37:18;;;;;;;10.68;4.30;;;;;;;;;;1707888;83;21039;-69
2022/05/12 09:39:46;;;;;;;18.67;5.05;;;;;;;;;;1753831;82;21025;-68
2022/05/12 09:42:17;;;;;;;43.70;6.70;;;;;;;;;;1752251;82;21556;-68
2022/05/12 09:44:57;;;;;;;4.25;3.80;;;;;;;;;;1749165;82;21064;-68
2022/05/12 09:47:23;;;;;;;9.95;4.67;;;;;;;;;;1752875;82;21029;-68
2022/05/12 09:49:49;;;;;;;7.25;4.47;;;;;;;;;;1749602;81;21020;-68
2022/05/12 09:52:32;;;;;;;11.03;4.72;;;;;;;;;;1724366;82;21094;-67
2022/05/12 09:55:16;;;;;;;26.62;6.37;;;;;;;;;;1753855;81;21015;-69
2022/05/12 09:57:48;;;;;;;8.30;3.90;;;;;;;;;;1753702;82;21363;-69
2022/05/12 10:00:32;;;;;;;13.28;5.15;;;;;;;;;;1753945;81;20985;-68
2022/05/12 10:08:30;;;;;;;20.43;5.45;;;;;;;;;;1722384;83;21088;-68
2022/05/12 10:11:04;;;;;;;11.90;4.42;;;;;;;;;;1748858;82;21543;-68
2022/05/12 10:13:47;;;;;;;16.85;4.67;;;;;;;;;;1752620;82;21400;-68
2022/05/12 10:16:15;;;;;;;409.73;36.65;;;;;;;;;;1753430;82;21451;-68
2022/05/12 10:18:43;;;;;;;13.93;5.25;;;;;;;;;;1724157;82;21027;-68
2022/05/12 10:21:12;;;;;;;14.95;4.55;;;;;;;;;;1724037;82;21488;-68
2022/05/12 10:23:40;;;;;;;6.50;4.67;;;;;;;;;;1724176;82;21056;-67
2022/05/12 10:26:14;;;;;;;11.22;4.20;;;;;;;;;;1688546;85;21034;-70
2022/05/12 10:28:48;;;;;;;6.60;3.92;;;;;;;;;;1684843;85;21007;-69
2022/05/12 10:31:25;;;;;;;4.95;4.30;;;;;;;;;;1724036;83;21076;-68
2022/05/12 10:33:54;;;;;;;6.25;4.03;;;;;;;;;;1682565;85;21030;-68
2022/05/12 10:36:38;;;;;;;5.67;4.25;;;;;;;;;;1689452;84;21087;-69
2022/05/12 10:39:06;;;;;;;13.05;4.33;;;;;;;;;;1672724;85;21571;-68
2022/05/12 10:41:36;;;;;;;11.22;4.40;;;;;;;;;;1656016;87;21136;-67
2022/05/12 10:44:10;;;;;;;6.60;4.08;;;;;;;;;;1642905;85;21048;-68
2022/05/12 10:46:44;;;;;;;6.45;3.95;;;;;;;;;;1632992;87;21148;-70
2022/05/12 10:49:24;;;;;;;7.33;4.45;;;;;;;;;;1656144;86;21025;-69
2022/05/12 10:51:58;;;;;;;4.25;3.80;;;;;;;;;;1659068;85;21096;-67
2022/05/12 10:54:32;;;;;;;7.95;4.00;;;;;;;;;;1723923;83;21079;-68
2022/05/12 10:57:09;;;;;;;298.05;28.47;;;;;;;;;;1716328;82;21099;-68
2022/05/12 10:59:51;;;;;;;17.98;4.72;;;;;;;;;;1708260;83;21028;-68
2022/05/12 11:02:19;;;;;;;8.18;3.85;;;;;;;;;;1647034;85;21058;-68
2022/05/12 11:04:50;;;;;;;11.25;4.45;;;;;;;;;;1723543;82;21044;-68
2022/05/12 11:07:21;;;;;;;6.08;4.00;;;;;;;;;;1729196;82;21017;-67
2022/05/12 11:09:48;;;;;;;9.03;3.92;;;;;;;;;;1711538;82;21107;-69
2022/05/12 11:12:17;;;;;;;10.75;4.03;;;;;;;;;;1732584;81;21110;-69
2022/05/12 11:14:46;;;;;;;88.05;10.53;;;;;;;;;;1699727;84;21025;-69
2022/05/12 11:17:14;;;;;;;8.28;4.20;;;;;;;;;;1687094;84;21106;-69
2022/05/12 11:19:42;;;;;;;4.90;3.98;;;;;;;;;;1699208;84;21063;-69
2022/05/12 11:22:22;;;;;;;7.78;4.15;;;;;;;;;;1698365;84;21037;-67
2022/05/12 11:24:52;;;;;;;5.95;3.72;;;;;;;;;;1669508;85;21079;-69
2022/05/12 11:27:23;;;;;;;10.45;4.35;;;;;;;;;;1668628;86;21082;-69
2022/05/12 11:29:54;;;;;;;5.08;3.77;;;;;;;;;;1688067;84;21095;-68
2022/05/12 11:32:40;;;;;;;5.28;3.85;;;;;;;;;;1668776;85;21120;-68
2022/05/12 11:35:08;;;;;;;8.53;4.33;;;;;;;;;;1660476;86;21473;-69
2022/05/12 11:37:37;;;;;;;58.17;8.93;;;;;;;;;;1692348;84;21057;-69
2022/05/12 11:40:05;;;;;;;15.98;5.37;;;;;;;;;;1690673;84;21059;-69
2022/05/12 11:45:29;;;;;;;56.95;6.90;;;;;;;;;;1681495;84;21060;-70
2022/05/12 11:48:00;;;;;;;6.80;3.75;;;;;;;;;;1653038;85;21491;-69
2022/05/12 11:50:34;;;;;;;18.07;4.00;;;;;;;;;;1683429;84;21609;-68
2022/05/12 11:53:07;;;;;;;14.33;4.12;;;;;;;;;;1690998;84;21610;-68
2022/05/12 11:55:35;;;;;;;14.33;4.10;;;;;;;;;;1690418;84;21107;-68
2022/05/12 11:58:05;;;;;;;9.73;3.80;;;;;;;;;;1702050;84;21523;-69
2022/05/12 12:00:43;;;;;;;9.10;3.98;;;;;;;;;;1682289;84;21063;-70
2022/05/12 12:03:22;;;;;;;7.17;3.55;;;;;;;;;;1669065;84;21127;-69
2022/05/12 12:05:50;;;;;;;12.10;4.78;;;;;;;;;;1673723;86;21024;-68
2022/05/12 12:08:33;;;;;;;28.32;5.42;;;;;;;;;;1645162;84;21072;-69
2022/05/12 12:10:59;;;;;;;;;;;;;;;;;;1652099;87;21104;-68
2022/05/12 12:13:32;;;;;;;8.48;3.85;;;;;;;;;;1643110;87;20191;-68
2022/05/12 12:15:58;;;;;;;;;;;;;;;;;;1632963;88;21123;-70
2022/05/12 12:18:28;;;;;;;6.90;3.60;;;;;;;;;;1681000;85;20139;-69
2022/05/12 12:20:56;;;;;;;45.20;6.62;;;;;;;;;;1679404;85;21115;-69
2022/05/12 12:23:24;;;;;;;4.55;3.62;;;;;;;;;;1624353;88;21106;-68
2022/05/12 12:25:59;;;;;;;17.52;4.25;;;;;;;;;;1621520;88;21099;-69
2022/05/12 12:28:26;;;;;;;8.73;3.60;;;;;;;;;;1598359;88;21163;-69
2022/05/12 12:32:32;;;;;;;5.58;3.70;;;;;;;;;;1856946;76;22530;-69
2022/05/12 12:35:15;;;;;;;16.00;4.10;;;;;;;;;;1842761;77;21135;-69
2022/05/12 12:37:50;;;;;;;7.67;3.60;;;;;;;;;;1863706;77;21094;-68
2022/05/12 12:40:33;;;;;;;4.30;3.45;;;;;;;;;;1849948;77;20987;-68
2022/05/12 12:42:59;;;;;;;;;;;;;;;;;;1853177;77;21474;-68
2022/05/12 12:45:25;;;;;;;7.05;3.40;;;;;;;;;;1862545;77;20130;-69
2022/05/12 12:48:02;;;;;;;10.20;3.87;;;;;;;;;;1848776;77;21051;-69
2022/05/12 12:50:30;;;;;;;30.48;5.50;;;;;;;;;;1841346;77;21022;-69
2022/05/12 12:52:58;;;;;;;11.10;4.10;;;;;;;;;;1836660;77;21515;-70
2022/05/12 12:58:13;;;;;;;6.12;3.30;;;;;;;;;;1864060;76;21039;-69
2022/05/12 13:00:38;;;;;;;4.97;3.25;;;;;;;;;;1859748;77;21570;-69
2022/05/12 13:03:20;;;;;;;6.87;3.52;;;;;;;;;;1863578;77;21057;-70
2022/05/12 13:05:47;;;;;;;12.47;3.72;;;;;;;;;;1828663;78;20981;-68
2022/05/12 13:08:25;;;;;;;9.73;3.52;;;;;;;;;;1828818;78;21481;-69
2022/05/12 13:10:53;;;;;;;8.88;3.60;;;;;;;;;;1828793;78;21069;-68
2022/05/12 13:13:19;;;;;;;10.63;3.75;;;;;;;;;;1849969;77;21005;-69
2022/05/12 13:15:47;;;;;;;10.43;4.15;;;;;;;;;;1844812;77;21580;-69
2022/05/12 13:18:17;;;;;;;12.73;3.72;;;;;;;;;;1828903;77;21071;-68
2022/05/12 13:20:43;;;;;;;11.08;4.47;;;;;;;;;;1862450;77;21037;-68
2022/05/12 13:23:18;;;;;;;4.17;3.10;;;;;;;;;;1861423;77;20992;-68
2022/05/12 13:25:44;;;;;;;6.42;3.50;;;;;;;;;;1860631;77;20999;-69
2022/05/12 13:28:15;;;;;;;6.30;3.67;;;;;;;;;;1860713;77;21043;-69
2022/05/12 13:30:44;;;;;;;16.65;3.92;;;;;;;;;;1860759;77;21099;-68
2022/05/12 13:33:12;;;;;;;7.25;3.60;;;;;;;;;;1862607;77;20998;-68
2022/05/12 13:35:39;;;;;;;13.58;4.00;;;;;;;;;;1859485;77;21060;-69
2022/05/12 13:38:06;;;;;;;16.05;4.05;;;;;;;;;;1858872;77;20977;-70
2022/05/12 13:40:36;;;;;;;5.55;3.60;;;;;;;;;;1850229;77;21466;-69
2022/05/12 13:43:02;;;;;;;28.87;5.10;;;;;;;;;;1855717;77;21008;-70
2022/05/12 13:45:34;;;;;;;22.15;5.00;;;;;;;;;;1858259;77;20945;-69
2022/05/12 13:48:00;;;;;;;;;;;;;;;;;;1860643;77;21016;-70
2022/05/12 13:50:34;;;;;;;7.60;3.27;;;;;;;;;;1857804;77;20123;-68
2022/05/12 13:53:00;;;;;;;7.20;3.47;;;;;;;;;;1857264;77;22094;-68
2022/05/12 13:55:27;;;;;;;7.80;3.40;;;;;;;;;;1858092;77;21059;-69
2022/05/12 13:57:55;;;;;;;9.43;3.50;;;;;;;;;;1839453;77;21069;-70
2022/05/12 14:00:40;;;;;;;8.90;3.70;;;;;;;;;;1857798;77;21005;-68
2022/05/12 14:03:27;;;;;;;8.13;3.10;;;;;;;;;;1844628;77;21084;-68
2022/05/12 14:05:57;;;;;;;11.28;3.75;;;;;;;;;;1838668;77;21000;-69
2022/05/12 14:08:26;;;;;;;29.95;6.37;;;;;;;;;;1836666;77;21033;-68
2022/05/12 14:11:01;;;;;;;8.05;4.33;;;;;;;;;;1837360;77;21475;-69
2022/05/12 14:19:14;;;;;;;12.85;3.30;;;;;;;;;;1831151;78;21041;-70
2022/05/12 14:21:48;;;;;;;8.78;3.12;;;;;;;;;;1837762;77;21055;-68
2022/05/12 14:24:17;;;;;;;9.90;3.72;;;;;;;;;;1829978;77;21048;-70
2022/05/12 14:26:43;;;;;;;16.32;3.80;;;;;;;;;;1855513;77;21559;-69
2022/05/12 14:29:10;;;;;;;15.05;3.67;;;;;;;;;;1841248;77;21025;-68
2022/05/12 14:31:36;;;;;;;12.43;3.80;;;;;;;;;;1851724;77;21025;-69
2022/05/12 14:34:03;;;;;;;8.65;3.30;;;;;;;;;;1858100;77;21033;-69
2022/05/12 14:36:29;;;;;;;8.53;3.37;;;;;;;;;;1852229;77;21016;-68
2022/05/12 14:38:55;;;;;;;13.20;4.40;;;;;;;;;;1859317;77;21005;-69
2022/05/12 14:41:22;;;;;;;8.93;3.95;;;;;;;;;;1858234;77;21175;-69
2022/05/12 14:43:48;;;;;;;13.90;4.28;;;;;;;;;;1850000;77;22214;-69
2022/05/12 14:46:14;;;;;;;7.00;3.45;;;;;;;;;;1852338;77;21068;-68
2022/05/12 14:48:41;;;;;;;15.08;3.75;;;;;;;;;;1826878;78;21036;-70
2022/05/12 14:51:07;;;;;;;19.25;4.47;;;;;;;;;;1848335;77;21060;-68
2022/05/12 14:53:36;;;;;;;8.68;2.83;;;;;;;;;;1828507;77;21037;-68
2022/05/12 14:56:01;;;;;;;11.48;3.60;;;;;;;;;;1827987;78;21014;-69
2022/05/12 14:58:27;;;;;;;8.38;3.37;;;;;;;;;;1828113;78;21442;-70
2022/05/12 15:00:53;;;;;;;14.33;3.33;;;;;;;;;;1849130;77;20975;-68
2022/05/12 15:03:19;;;;;;;9.00;3.47;;;;;;;;;;1828112;78;21045;-69
2022/05/12 15:05:46;;;;;;;8.05;3.67;;;;;;;;;;1849100;77;20994;-68
2022/05/12 15:08:12;;;;;;;9.98;3.87;;;;;;;;;;1841374;77;21047;-69
2022/05/12 15:10:38;;;;;;;19.12;4.40;;;;;;;;;;1856883;77;21005;-69
2022/05/12 15:13:04;;;;;;;8.98;3.47;;;;;;;;;;1852331;77;21524;-69
2022/05/12 15:15:31;;;;;;;13.53;3.83;;;;;;;;;;1828270;78;21548;-69
2022/05/12 15:17:57;;;;;;;7.05;3.60;;;;;;;;;;1840968;77;21036;-70
2022/05/12 15:20:23;;;;;;;23.87;5.10;;;;;;;;;;1847961;77;21142;-69
2022/05/12 15:22:49;;;;;;;15.53;3.72;;;;;;;;;;1855604;77;21497;-69